x

Freeport, Tx - 60 Nm South Of Freeport, Tx (42019) Wave Buoy

9:50am - Sun 28th Dec 2014 All times are CST. -6 hours from GMT.

  • Sig Wave height 4.9ft
  • Swell Direction
  • Peak Period 6s
  • Average Period 5s
  • Wind
    18mph, 22mph gusts
  • Sea Temp 71°f
  • Air Temp 57°f
  • Sea Pressure 1022.4mb
  • Freeport, Tx - 60 Nm South Of Freeport, Tx
  • Freeport, Tx - 60 Nm South Of Freeport, Tx

More Historic Weather Station data

Upgrade to MSW Pro to gain access to the past 30 days of data for over 8000 Wavebouys and Weather Stations around the globe.

Join Pro

Comparision Forecast

View Surf forecast
   
Sun 12/28 9:50am 5ft 6s 5s 18 22 mph 1022.4mb 71f 57f
8:50am 5ft 7s 5s 18 25 mph 1021.3mb 71f 58f
7:50am 5.5ft 6s 5s 20 25 mph 1020.1mb 72f 58f
6:50am 5.5ft 6s 5s 22 27 mph 1019.3mb 72f 58f
5:50am 5.5ft 7s 5s 22 27 mph 1019.1mb 72f 58f
4:50am 5.5ft 6s 5s 20 25 mph 1018.9mb 72f 59f
3:50am 7ft 6s 5s 22 27 mph 1018.4mb 72f 58f
2:50am 6ft 6s 5s 22 27 mph 1019.5mb 72f 57f
1:50am 6ft 6s 5s 25 29 mph 1019.6mb 72f 57f
12:50am 5.5ft 6s 5s 27 29 mph 1019.1mb 72f 56f
Sat 12/27 11:50pm 5.5ft 6s 5s 25 29 mph 1019.9mb 72f 58f
10:50pm 5.5ft 6s 5s 22 27 mph 1019.4mb 72f 58f
9:50pm 5.5ft 5s 5s 22 25 mph 1019.2mb 72f 59f
8:50pm 4.5ft 4s 4s 25 29 mph 1018.5mb 72f 60f
7:50pm 3.5ft 6s 4s 22 27 mph 1018mb 73f 62f
6:50pm 3.5ft 7s 5s 7 9 mph 1017.2mb 73f 73f
5:50pm 3.5ft 7s 5s 7 9 mph 1017mb 73f 73f
4:50pm 4ft 7s 5s 9 11 mph 1016.1mb 73f 73f
3:50pm 4.5ft 6s 5s 16 18 mph 1014.9mb 73f 73f
2:50pm 4.5ft 7s 5s 22 27 mph 1014.3mb 73f 73f
1:50pm 4.5ft 7s 5s 16 20 mph 1015.2mb 73f 73f
12:50pm 4.5ft 6s 5s 16 18 mph 1015.5mb 73f 73f
11:50am 4.5ft 8s 5s 18 20 mph 1016.7mb 72f 73f
10:50am 4.5ft 7s 5s 20 25 mph 1017.2mb 72f 73f
9:50am 4.5ft 6s 5s 18 25 mph 1017.1mb 72f 73f
8:50am 5ft 7s 5s 18 22 mph 1016.7mb 72f 73f
7:50am 4.5ft 7s 5s 16 18 mph 1016.2mb 72f 73f
6:50am 5ft 8s 5s 16 18 mph 1015.6mb 72f 73f
5:50am 5ft 7s 5s 13 16 mph 1014.9mb 72f 73f
4:50am 5ft 7s 5s 13 16 mph 1014.9mb 72f 73f
3:50am 5ft 8s 5s 13 16 mph 1015mb 72f 73f
2:50am 5.5ft 7s 5s 16 20 mph 1014.9mb 72f 73f
1:50am 5.5ft 8s 5s 20 22 mph 1014.9mb 72f 73f
12:50am 6ft 8s 6s 18 22 mph 1015.4mb 72f 73f
Fri 12/26 11:50pm 6ft 8s 5s 18 22 mph 1015.7mb 72f 73f
10:50pm 5.5ft 8s 5s 20 25 mph 1015.8mb 72f 73f
9:50pm 6.5ft 7s 6s 18 25 mph 1016.1mb 72f 73f
8:50pm 7ft 8s 6s 20 25 mph 1015.4mb 72f 73f
7:50pm 7ft 8s 5s 20 25 mph 1014.5mb 72f 73f
6:50pm 7.5ft 7s 6s 22 27 mph 1013.9mb 72f 73f
5:50pm 7.5ft 7s 6s 22 27 mph 1013.3mb 72f 73f
4:50pm 8ft 8s 6s 20 25 mph 1013.3mb 72f 72f
3:50pm 7.5ft 7s 6s 20 25 mph 1013.6mb 72f 72f
2:50pm 7.5ft 8s 6s 22 27 mph 1013.7mb 72f 73f
1:50pm 8.5ft 8s 6s 22 29 mph 1013.6mb 72f 72f
12:50pm 8.5ft 7s 6s 22 29 mph 1014.5mb 72f 72f
11:50am 8ft 8s 6s 25 29 mph 1015.8mb 72f 72f
10:50am 8.5ft 7s 6s 22 27 mph 1016.6mb 71f 72f
9:50am 8.5ft 7s 6s 25 29 mph 1016.4mb 71f 71f
8:50am 7.5ft 7s 5s 25 29 mph 1015.8mb 71f 71f
7:50am 8ft 7s 6s 22 29 mph 1015.8mb 72f 71f
6:50am 8ft 7s 6s 22 29 mph 1015.4mb 72f 71f
5:50am 8ft 7s 6s 25 29 mph 1015mb 72f 71f
4:50am 8ft 7s 6s 25 29 mph 1015.2mb 72f 70f
3:50am 8ft 7s 6s 22 27 mph 1015.9mb 72f 69f
2:50am 8ft 7s 6s 25 29 mph 1016.2mb 72f 70f
1:50am 7.5ft 7s 5s 27 31 mph 1016.4mb 72f 69f
12:50am 7.5ft 6s 5s 25 29 mph 1016.8mb 72f 69f
Thu 12/25 11:50pm 6ft 6s 5s 27 31 mph 1016.9mb 72f 69f
10:50pm 6ft 5s 5s 27 31 mph 1017.3mb 72f 68f
9:50pm 5ft 6s 4s 27 29 mph 1017.7mb 72f 67f
8:50pm 4.5ft 5s 4s 25 29 mph 1017.7mb 72f 67f
7:50pm 4ft 5s 4s 22 27 mph 1017.5mb 72f 66f
6:50pm 4ft 5s 4s 20 25 mph 1018.1mb 72f 66f
5:50pm 3.5ft 4s 4s 18 20 mph 1017.9mb 72f 65f
4:50pm 3.5ft 5s 4s 18 22 mph 1018.1mb 72f 65f
3:50pm 3ft 4s 4s 18 22 mph 1018.8mb 72f 64f
2:50pm 3ft 4s 4s 18 25 mph 1019.2mb 72f 64f
1:50pm 2.5ft 4s 4s 18 22 mph 1019.9mb 72f 64f
12:50pm 2.5ft 4s 4s 16 22 mph 1020.5mb 72f 63f
11:50am 2.5ft 3s 3s 16 22 mph 1021.6mb 72f 63f
10:50am 2ft 3s 3s 16 20 mph 1022.6mb 72f 63f
9:50am 1.6ft 3s 3s 16 22 mph 1022.7mb 72f 62f
8:50am 1.3ft 3s 3s 16 20 mph 1022.3mb 71f 62f
7:50am 1ft 4s 4s 13 20 mph 1022.1mb 71f 61f
6:50am 1ft 9s 4s 9 13 mph 1021.3mb 71f 60f
5:50am 1.3ft 4s 4s 7 9 mph 1021mb 71f 60f
4:50am 1.3ft 4s 4s 4 7 mph 1020.8mb 71f 59f
3:50am 1.3ft 4s 4s  -  2 mph 1021.1mb 71f 59f
2:50am 1.6ft 4s 4s 4 7 mph 1021.3mb 71f 59f
1:50am 1.6ft 4s 4s 7 11 mph 1021.7mb 71f 59f
12:50am 2ft 4s 4s 7 9 mph 1021.6mb 71f 59f
Wed 12/24 11:50pm 2.5ft 4s 4s 7 11 mph 1021.9mb 71f 58f
10:50pm 2.5ft 4s 4s 13 18 mph 1021.8mb 71f 58f
9:50pm 2.5ft 5s 4s 13 18 mph 1021.8mb 71f 58f
8:50pm 3.5ft 5s 4s 16 18 mph 1021.2mb 71f 58f
7:50pm 3.5ft 5s 4s 18 22 mph 1020.8mb 71f 57f
6:50pm 4.5ft 5s 4s 18 22 mph 1020.4mb 71f 56f
5:50pm 4.5ft 5s 4s 18 25 mph 1019.9mb 71f 55f
4:50pm 5ft 6s 5s 18 27 mph 1020mb 71f 55f